createdAt,value
2022-11-04T00:00:37.297Z,47.28
2022-11-04T00:03:08.127Z,43.53
2022-11-04T00:05:38.703Z,47.30
2022-11-04T00:08:27.122Z,41.33
2022-11-04T00:11:17.181Z,43.58
2022-11-04T00:13:48.448Z,42.97
2022-11-04T00:16:37.527Z,42.28
2022-11-04T00:19:07.905Z,43.10
2022-11-04T00:21:47.822Z,39.22
2022-11-04T00:24:28.191Z,43.13
2022-11-04T00:27:08.401Z,43.80
2022-11-04T00:29:38.966Z,43.53
2022-11-04T00:34:49.244Z,42.42
2022-11-04T00:39:49.557Z,41.90
2022-11-04T00:44:49.611Z,46.38
2022-11-04T00:47:26.901Z,41.30
2022-11-04T00:49:57.388Z,45.10
2022-11-04T00:52:27.955Z,48.67
2022-11-04T00:57:30.056Z,55.17
2022-11-04T01:00:00.261Z,52.47
2022-11-04T01:02:30.873Z,55.53
2022-11-04T01:05:01.582Z,63.35
2022-11-04T01:10:02.573Z,64.53
2022-11-04T01:12:33.118Z,64.80
2022-11-04T01:17:33.408Z,67.82
2022-11-04T01:20:03.841Z,59.83
2022-11-04T01:22:34.197Z,57.28
2022-11-04T01:25:04.495Z,56.30
2022-11-04T01:27:34.766Z,56.03
2022-11-04T01:30:05.287Z,55.63
2022-11-04T01:35:05.152Z,59.03
2022-11-04T01:37:35.556Z,60.22
2022-11-04T01:40:06.091Z,60.28
2022-11-04T01:45:06.281Z,57.60
2022-11-04T01:50:18.581Z,57.97
2022-11-04T01:52:57.144Z,59.47
2022-11-04T01:55:31.272Z,58.30
2022-11-04T01:58:05.471Z,59.47
2022-11-04T02:00:36.254Z,56.63
2022-11-04T02:03:11.838Z,59.80
2022-11-04T02:05:43.180Z,62.15
2022-11-04T02:08:15.568Z,58.97
2022-11-04T02:10:55.057Z,63.42
2022-11-04T02:13:25.559Z,60.85
2022-11-04T02:19:05.963Z,60.90
2022-11-04T02:22:04.841Z,64.50
2022-11-04T02:25:06.256Z,67.45
2022-11-04T02:28:15.432Z,64.07
2022-11-04T02:31:17.749Z,65.43
2022-11-04T02:34:26.961Z,67.32
2022-11-04T02:37:18.860Z,69.82
2022-11-04T02:40:20.685Z,72.43
2022-11-04T02:43:11.090Z,66.93
2022-11-04T02:45:47.345Z,71.80
2022-11-04T02:48:41.456Z,72.18
2022-11-04T02:51:22.531Z,67.65
2022-11-04T02:54:15.180Z,70.32
2022-11-04T02:56:52.032Z,65.20
2022-11-04T02:59:32.562Z,70.90
2022-11-04T03:02:06.545Z,72.95
2022-11-04T03:04:41.389Z,77.32
2022-11-04T03:07:14.977Z,69.93
2022-11-04T03:09:51.849Z,70.20
2022-11-04T03:12:29.291Z,72.80
2022-11-04T03:15:08.384Z,68.50
2022-11-04T03:18:00.398Z,68.47
2022-11-04T03:20:33.188Z,67.22
2022-11-04T03:23:03.305Z,63.45
2022-11-04T03:25:39.949Z,57.92
2022-11-04T03:28:39.961Z,55.45
2022-11-04T03:31:15.130Z,55.63
2022-11-04T03:33:51.080Z,59.55
2022-11-04T03:36:21.926Z,59.05
2022-11-04T03:38:53.948Z,59.97
2022-11-04T03:41:38.177Z,55.00
2022-11-04T03:44:08.262Z,56.50
2022-11-04T03:46:38.552Z,61.17
2022-11-04T03:51:38.587Z,57.58
2022-11-04T03:54:09.424Z,58.45
2022-11-04T03:57:09.459Z,63.45
2022-11-04T04:00:13.050Z,57.45
2022-11-04T04:02:55.266Z,57.72
2022-11-04T04:05:32.135Z,57.40
2022-11-04T04:08:35.940Z,58.70
2022-11-04T04:11:27.835Z,61.17
2022-11-04T04:14:09.137Z,63.78
2022-11-04T04:16:48.037Z,60.22
2022-11-04T04:19:23.018Z,59.13
2022-11-04T04:22:03.208Z,61.38
2022-11-04T04:27:39.466Z,63.47
2022-11-04T04:30:12.166Z,58.22
2022-11-04T04:32:50.081Z,60.38
2022-11-04T04:35:33.308Z,62.55
2022-11-04T04:38:23.583Z,62.75
2022-11-04T04:44:03.950Z,55.20
2022-11-04T04:49:11.833Z,46.67
2022-11-04T04:51:46.812Z,39.75
2022-11-04T04:54:17.587Z,41.10
2022-11-04T04:56:49.209Z,36.35
2022-11-04T04:59:19.686Z,39.00
2022-11-04T05:01:49.767Z,36.42
2022-11-04T05:06:49.355Z,34.38
2022-11-04T05:09:19.216Z,26.42
2022-11-04T05:11:49.195Z,25.67
2022-11-04T05:14:19.224Z,28.42
2022-11-04T05:16:49.089Z,29.05
2022-11-04T05:19:19.366Z,33.45
2022-11-04T05:21:49.408Z,32.20
2022-11-04T05:26:48.655Z,32.97
2022-11-04T05:31:47.953Z,31.37
2022-11-04T05:34:17.932Z,28.42
2022-11-04T05:36:47.879Z,30.98
2022-11-04T05:39:17.958Z,28.48
2022-11-04T05:44:17.771Z,26.60
2022-11-04T05:46:47.789Z,24.75
2022-11-04T05:49:18.680Z,26.55
2022-11-04T05:51:48.717Z,22.83
2022-11-04T05:56:48.508Z,23.00
2022-11-04T05:59:18.461Z,20.88
2022-11-04T06:01:48.913Z,21.13
2022-11-04T06:04:21.607Z,23.00
2022-11-04T06:06:51.629Z,20.70
2022-11-04T06:11:51.909Z,23.75
2022-11-04T06:14:21.804Z,23.27
2022-11-04T06:16:51.746Z,22.98
2022-11-04T06:19:21.815Z,24.35
2022-11-04T06:24:20.900Z,22.00
2022-11-04T06:29:20.539Z,19.20
2022-11-04T06:31:50.478Z,21.20
2022-11-04T06:34:20.679Z,20.33
2022-11-04T06:36:52.239Z,22.25
2022-11-04T06:39:24.130Z,21.17
2022-11-04T06:41:55.492Z,20.08
2022-11-04T06:44:27.989Z,19.90
2022-11-04T06:49:27.982Z,20.10
2022-11-04T06:51:58.080Z,20.73
2022-11-04T06:54:30.944Z,21.00
2022-11-04T06:57:01.153Z,21.50
2022-11-04T06:59:31.100Z,19.98
2022-11-04T07:04:30.676Z,21.00
2022-11-04T07:09:29.964Z,22.40
2022-11-04T07:14:29.657Z,20.65
2022-11-04T07:19:29.032Z,20.00
2022-11-04T07:21:59.581Z,20.85
2022-11-04T07:24:29.508Z,21.98
2022-11-04T07:29:30.474Z,19.08
2022-11-04T07:32:00.546Z,19.95
2022-11-04T07:37:00.534Z,22.60
2022-11-04T07:42:00.042Z,21.10
2022-11-04T07:47:00.326Z,21.23
2022-11-04T07:49:30.207Z,18.77
2022-11-04T07:52:00.284Z,21.30
2022-11-04T07:57:01.688Z,21.03
2022-11-04T07:59:32.020Z,19.17
2022-11-04T08:02:02.085Z,18.48
2022-11-04T08:04:32.221Z,21.02
2022-11-04T08:09:31.370Z,20.08
2022-11-04T08:12:01.955Z,22.55
2022-11-04T08:14:32.526Z,21.95
2022-11-04T08:17:02.436Z,21.65
2022-11-04T08:22:03.110Z,22.67
2022-11-04T08:27:02.521Z,21.02
2022-11-04T08:29:36.816Z,25.90
2022-11-04T08:32:06.894Z,25.67
2022-11-04T08:34:37.266Z,32.38
2022-11-04T08:37:07.196Z,29.48
2022-11-04T08:42:06.787Z,29.75
2022-11-04T08:44:36.938Z,31.35
2022-11-04T08:47:07.001Z,29.35
2022-11-04T08:49:43.376Z,31.27
2022-11-04T08:52:13.784Z,32.60
2022-11-04T08:54:44.440Z,29.25
2022-11-04T08:57:14.963Z,27.50
2022-11-04T08:59:45.482Z,30.25
2022-11-04T09:02:18.417Z,28.52
2022-11-04T09:04:48.832Z,27.27
2022-11-04T09:07:19.297Z,26.35
2022-11-04T09:09:53.591Z,27.17
2022-11-04T09:12:23.914Z,24.42
2022-11-04T09:14:55.548Z,27.85
2022-11-04T09:17:25.980Z,26.75
2022-11-04T09:19:56.430Z,28.52
2022-11-04T09:22:26.938Z,27.88
2022-11-04T09:24:57.612Z,23.63
2022-11-04T09:27:28.118Z,26.77
2022-11-04T09:29:58.645Z,27.52
2022-11-04T09:32:29.140Z,27.42
2022-11-04T09:34:59.732Z,29.30
2022-11-04T09:37:30.078Z,27.92
2022-11-04T09:40:00.603Z,26.25
2022-11-04T09:43:04.954Z,26.30
2022-11-04T09:45:36.414Z,26.38
2022-11-04T09:48:11.595Z,25.02
2022-11-04T09:51:00.091Z,25.73
2022-11-04T09:53:44.078Z,24.92
2022-11-04T09:56:23.993Z,25.90
2022-11-04T09:58:54.978Z,27.63
2022-11-04T10:01:55.719Z,25.48
2022-11-04T10:04:46.093Z,24.02
2022-11-04T10:07:44.504Z,27.95
2022-11-04T10:10:33.583Z,26.27
2022-11-04T10:13:26.306Z,26.80
2022-11-04T10:16:26.371Z,25.95
2022-11-04T10:22:07.215Z,29.92
2022-11-04T10:24:52.331Z,28.48
2022-11-04T10:27:29.308Z,29.90
2022-11-04T10:30:04.342Z,28.30
2022-11-04T10:32:56.004Z,29.48
2022-11-04T10:36:05.271Z,30.42
2022-11-04T10:38:52.327Z,27.13
2022-11-04T10:41:41.122Z,25.92
2022-11-04T10:44:22.973Z,24.70
2022-11-04T10:47:17.349Z,25.42
2022-11-04T10:50:33.600Z,26.15
2022-11-04T10:53:26.400Z,25.52
2022-11-04T10:56:20.439Z,23.35
2022-11-04T10:58:52.397Z,24.25
2022-11-04T11:01:38.757Z,26.60
2022-11-04T11:04:12.165Z,22.65
2022-11-04T11:06:42.655Z,21.95
2022-11-04T11:09:22.236Z,22.27
2022-11-04T11:11:55.372Z,25.08
2022-11-04T11:14:39.354Z,23.65
2022-11-04T11:17:22.908Z,25.60
2022-11-04T11:19:58.838Z,27.13
2022-11-04T11:22:40.415Z,23.08
2022-11-04T11:25:26.695Z,25.50
2022-11-04T11:28:03.341Z,28.05
2022-11-04T11:30:46.233Z,28.45
2022-11-04T11:33:40.879Z,27.48
2022-11-04T11:36:33.938Z,26.08
2022-11-04T11:39:22.047Z,27.50
2022-11-04T11:42:05.485Z,28.65
2022-11-04T11:44:46.156Z,31.83
2022-11-04T11:47:40.633Z,34.38
2022-11-04T11:50:21.482Z,32.90
2022-11-04T11:52:54.532Z,34.83
2022-11-04T11:55:38.479Z,36.53
2022-11-04T12:01:37.612Z,39.05
2022-11-04T12:10:52.578Z,46.50
2022-11-04T12:13:31.626Z,48.88
2022-11-04T12:16:23.983Z,48.03
2022-11-04T12:19:24.091Z,45.83
2022-11-04T12:22:20.395Z,47.20
2022-11-04T12:25:07.231Z,45.60
2022-11-04T12:27:55.792Z,44.03
2022-11-04T12:30:33.852Z,43.60
2022-11-04T12:33:28.604Z,42.67
2022-11-04T12:36:19.633Z,45.92
2022-11-04T12:39:06.734Z,44.25
2022-11-04T12:42:21.893Z,43.65
2022-11-04T12:45:32.466Z,43.13
2022-11-04T12:48:10.016Z,45.37
2022-11-04T12:50:57.173Z,45.83
2022-11-04T12:53:55.720Z,45.25
2022-11-04T12:56:40.863Z,48.08
2022-11-04T12:59:36.611Z,49.83
2022-11-04T13:02:31.443Z,53.95
2022-11-04T13:05:10.130Z,54.25
2022-11-04T13:08:08.692Z,61.08
2022-11-04T13:10:55.065Z,61.03
2022-11-04T13:13:37.929Z,67.90
2022-11-04T13:16:13.837Z,65.40
2022-11-04T13:18:47.819Z,63.78
2022-11-04T13:21:29.528Z,68.65
2022-11-04T13:24:24.912Z,66.50
2022-11-04T13:26:55.695Z,72.10
2022-11-04T13:29:28.283Z,66.25
2022-11-04T13:32:23.713Z,67.28
2022-11-04T13:35:19.882Z,64.95
2022-11-04T13:38:14.576Z,57.85
2022-11-04T13:41:20.201Z,56.15
2022-11-04T13:43:57.753Z,50.45
2022-11-04T13:46:36.311Z,49.33
2022-11-04T13:49:10.336Z,46.85
2022-11-04T13:51:47.118Z,44.53
2022-11-04T13:54:32.678Z,44.28
2022-11-04T13:57:22.308Z,45.03
2022-11-04T14:00:29.478Z,44.83
2022-11-04T14:03:02.282Z,50.72
2022-11-04T14:06:05.942Z,51.03
2022-11-04T14:08:37.778Z,45.80
2022-11-04T14:11:12.894Z,47.75
2022-11-04T14:13:46.499Z,44.38
2022-11-04T14:16:40.349Z,46.63
2022-11-04T14:19:44.284Z,44.10
2022-11-04T14:22:19.530Z,47.47
2022-11-04T14:24:59.869Z,48.30
2022-11-04T14:30:33.181Z,49.08
2022-11-04T14:33:08.350Z,52.42
2022-11-04T14:35:39.471Z,48.63
2022-11-04T14:38:32.650Z,46.17
2022-11-04T14:41:15.609Z,46.92
2022-11-04T14:43:49.230Z,46.13
2022-11-04T14:46:26.444Z,46.05
2022-11-04T14:48:59.405Z,42.72
2022-11-04T14:51:33.498Z,44.35
2022-11-04T14:54:23.601Z,44.47
2022-11-04T14:56:54.416Z,46.33
2022-11-04T14:59:30.920Z,44.55
2022-11-04T15:02:01.488Z,41.55
2022-11-04T15:04:34.532Z,40.10
2022-11-04T15:07:07.087Z,44.50
2022-11-04T15:09:51.199Z,45.92
2022-11-04T15:12:34.134Z,44.00
2022-11-04T15:15:04.577Z,48.78
2022-11-04T15:17:36.503Z,47.75
2022-11-04T15:20:07.554Z,44.78
2022-11-04T15:22:38.448Z,51.13
2022-11-04T15:25:14.483Z,48.13
2022-11-04T15:27:45.796Z,48.60
2022-11-04T15:30:28.355Z,49.55
2022-11-04T15:33:05.963Z,48.63
2022-11-04T15:35:37.039Z,44.10
2022-11-04T15:38:07.635Z,45.88
2022-11-04T15:40:38.018Z,44.13
2022-11-04T15:43:09.072Z,48.38
2022-11-04T15:45:53.937Z,46.45
2022-11-04T15:48:32.508Z,45.40
2022-11-04T15:51:20.319Z,63.60
2022-11-04T15:54:09.110Z,67.85
2022-11-04T15:56:52.903Z,55.95
2022-11-04T15:59:28.990Z,58.30
2022-11-04T16:01:59.732Z,61.90
2022-11-04T16:04:32.250Z,61.63
2022-11-04T16:07:24.618Z,62.53
2022-11-04T16:09:57.850Z,59.67
2022-11-04T16:12:32.938Z,58.45
2022-11-04T16:15:03.895Z,61.17
2022-11-04T16:17:35.288Z,57.70
2022-11-04T16:20:09.576Z,58.60
2022-11-04T16:22:42.581Z,57.08
2022-11-04T16:25:24.651Z,55.47
2022-11-04T16:27:54.971Z,54.97
2022-11-04T16:32:58.303Z,51.15
2022-11-04T16:35:30.453Z,50.60
2022-11-04T16:38:04.277Z,48.88
2022-11-04T16:40:36.735Z,50.45
2022-11-04T16:43:07.473Z,46.55
2022-11-04T16:45:41.681Z,48.45
2022-11-04T16:48:16.701Z,45.42
2022-11-04T16:50:48.685Z,45.72
2022-11-04T16:53:19.381Z,45.80
2022-11-04T16:55:50.088Z,42.58
2022-11-04T16:58:21.982Z,43.72
2022-11-04T17:00:52.559Z,43.70
2022-11-04T17:03:23.777Z,40.85
2022-11-04T17:05:58.531Z,42.45
2022-11-04T17:08:30.409Z,44.83
2022-11-04T17:11:01.423Z,46.85
2022-11-04T17:13:36.197Z,45.80
2022-11-04T17:16:09.715Z,45.33
2022-11-04T17:18:40.352Z,45.70
2022-11-04T17:21:16.280Z,47.03
2022-11-04T17:23:47.307Z,46.95
2022-11-04T17:26:17.910Z,49.10
2022-11-04T17:28:48.234Z,46.38
2022-11-04T17:31:23.633Z,49.03
2022-11-04T17:33:54.245Z,46.92
2022-11-04T17:36:25.270Z,48.75
2022-11-04T17:38:55.779Z,45.42
2022-11-04T17:44:14.558Z,37.50
2022-11-04T17:46:47.017Z,40.30
2022-11-04T17:49:20.984Z,35.75
2022-11-04T17:51:55.678Z,37.42
2022-11-04T17:54:27.497Z,36.58
2022-11-04T17:56:58.113Z,38.70
2022-11-04T17:59:32.569Z,38.97
2022-11-04T18:02:06.944Z,40.83
2022-11-04T18:04:37.440Z,36.50
2022-11-04T18:09:38.346Z,39.85
2022-11-04T18:12:25.914Z,40.42
2022-11-04T18:14:56.349Z,35.55
2022-11-04T18:22:27.287Z,40.63
2022-11-04T18:27:27.521Z,38.50
2022-11-04T18:29:58.632Z,40.88
2022-11-04T18:32:28.933Z,40.28
2022-11-04T18:34:59.834Z,39.95
2022-11-04T18:37:31.643Z,40.38
2022-11-04T18:40:02.349Z,37.90
2022-11-04T18:42:32.616Z,39.75
2022-11-04T18:45:03.016Z,38.90
2022-11-04T18:47:33.837Z,40.92
2022-11-04T18:50:04.256Z,40.60
2022-11-04T18:52:34.662Z,38.22
2022-11-04T18:57:35.233Z,40.30
2022-11-04T19:00:06.579Z,39.65
2022-11-04T19:02:36.912Z,44.63
2022-11-04T19:05:07.667Z,42.13
2022-11-04T19:07:38.036Z,41.00
2022-11-04T19:10:08.767Z,39.72
2022-11-04T19:12:49.507Z,42.20
2022-11-04T19:15:19.911Z,42.67
2022-11-04T19:17:50.367Z,41.25
2022-11-04T19:22:50.574Z,44.58
2022-11-04T19:25:20.915Z,40.83
2022-11-04T19:28:11.709Z,43.22
2022-11-04T19:33:11.822Z,41.92
2022-11-04T19:38:13.825Z,43.25
2022-11-04T19:40:46.797Z,42.33
2022-11-04T19:43:25.486Z,41.30
2022-11-04T19:45:59.971Z,40.95
2022-11-04T19:48:34.143Z,42.08
2022-11-04T19:51:04.481Z,38.85
2022-11-04T19:53:34.810Z,43.35
2022-11-04T19:56:05.165Z,40.20
2022-11-04T19:58:35.769Z,42.53
2022-11-04T20:01:08.995Z,40.45
2022-11-04T20:03:39.828Z,36.58
2022-11-04T20:06:13.098Z,40.33
2022-11-04T20:08:45.032Z,40.72
2022-11-04T20:11:16.762Z,40.88
2022-11-04T20:13:48.634Z,41.72
2022-11-04T20:16:24.493Z,39.85
2022-11-04T20:19:00.527Z,40.28
2022-11-04T20:21:35.696Z,41.35
2022-11-04T20:24:10.147Z,42.20
2022-11-04T20:26:42.657Z,39.75
2022-11-04T20:29:14.010Z,42.20
2022-11-04T20:31:44.423Z,39.05
2022-11-04T20:34:16.421Z,42.10
2022-11-04T20:36:46.818Z,40.50
2022-11-04T20:39:20.566Z,38.78
2022-11-04T20:41:50.990Z,43.65
2022-11-04T20:44:21.432Z,38.70
2022-11-04T20:46:51.749Z,39.80
2022-11-04T20:49:22.247Z,37.90
2022-11-04T20:54:25.976Z,37.95
2022-11-04T20:56:56.416Z,38.13
2022-11-04T21:01:56.668Z,38.95
2022-11-04T21:04:30.609Z,38.58
2022-11-04T21:07:04.875Z,40.35
2022-11-04T21:09:35.226Z,42.47
2022-11-04T21:12:06.070Z,40.45
2022-11-04T21:14:37.235Z,40.45
2022-11-04T21:17:08.816Z,40.90
2022-11-04T21:19:39.220Z,43.38
2022-11-04T21:22:09.762Z,41.65
2022-11-04T21:27:09.997Z,40.03
2022-11-04T21:29:40.329Z,42.08
2022-11-04T21:32:10.737Z,39.40
2022-11-04T21:34:41.291Z,43.65
2022-11-04T21:39:41.537Z,44.97
2022-11-04T21:44:41.825Z,43.92
2022-11-04T21:47:12.230Z,43.70
2022-11-04T21:49:42.605Z,41.90
2022-11-04T21:52:12.928Z,43.50
2022-11-04T21:54:43.156Z,43.78
2022-11-04T21:57:13.461Z,43.92
2022-11-04T21:59:43.872Z,43.75
2022-11-04T22:02:14.453Z,43.38
2022-11-04T22:04:44.951Z,39.63
2022-11-04T22:07:15.249Z,41.67
2022-11-04T22:09:45.653Z,41.35
2022-11-04T22:12:15.949Z,40.53
2022-11-04T22:14:46.383Z,40.40
2022-11-04T22:17:16.683Z,42.20
2022-11-04T22:19:47.093Z,39.60
2022-11-04T22:22:17.510Z,39.20
2022-11-04T22:25:05.071Z,38.53
2022-11-04T22:27:36.815Z,37.63
2022-11-04T22:30:07.525Z,39.42
2022-11-04T22:32:37.906Z,37.67
2022-11-04T22:35:08.904Z,37.60
2022-11-04T22:37:39.427Z,38.55
2022-11-04T22:42:39.985Z,38.42
2022-11-04T22:45:16.369Z,36.50
2022-11-04T22:47:47.215Z,38.45
2022-11-04T22:50:17.628Z,38.30
2022-11-04T22:52:48.044Z,42.72
2022-11-04T22:55:20.025Z,38.22
2022-11-04T22:57:50.419Z,39.78
2022-11-04T23:00:20.870Z,38.42
2022-11-04T23:02:51.527Z,42.58
2022-11-04T23:05:22.205Z,38.22
2022-11-04T23:10:33.850Z,39.63
2022-11-04T23:13:13.998Z,40.88
2022-11-04T23:15:54.231Z,36.67
2022-11-04T23:18:34.336Z,36.75
2022-11-04T23:21:14.493Z,42.42
2022-11-04T23:23:54.656Z,36.17
2022-11-04T23:26:27.821Z,37.08
2022-11-04T23:29:14.922Z,37.35
2022-11-04T23:31:45.334Z,38.22
2022-11-04T23:34:25.293Z,36.08
2022-11-04T23:37:05.525Z,39.47
2022-11-04T23:39:35.960Z,40.80
2022-11-04T23:42:21.649Z,39.85
2022-11-04T23:45:15.938Z,40.13
2022-11-04T23:48:06.172Z,38.20
2022-11-04T23:50:56.252Z,38.00
2022-11-04T23:53:36.482Z,36.58
2022-11-04T23:56:26.585Z,38.10
2022-11-04T23:59:06.795Z,36.47
